createdAt,value
2022-08-20T00:01:46.810Z,54.03
2022-08-20T00:06:41.077Z,53.54
2022-08-20T00:11:34.650Z,53.82
2022-08-20T00:16:33.717Z,53.55
2022-08-20T00:21:26.079Z,53.02
2022-08-20T00:26:22.459Z,53.21
2022-08-20T00:31:18.766Z,52.97
2022-08-20T00:36:13.109Z,52.69
2022-08-20T00:41:08.271Z,52.28
2022-08-20T00:46:05.083Z,52.59
2022-08-20T00:51:06.214Z,52.70
2022-08-20T00:56:01.719Z,52.41
2022-08-20T01:00:55.444Z,52.39
2022-08-20T01:05:51.740Z,52.04
2022-08-20T01:10:53.294Z,52.02
2022-08-20T01:15:49.013Z,51.96
2022-08-20T01:20:47.735Z,52.25
2022-08-20T01:25:43.739Z,51.96
2022-08-20T01:30:38.659Z,52.11
2022-08-20T01:35:38.091Z,52.13
2022-08-20T01:40:59.905Z,52.01
2022-08-20T01:45:54.031Z,52.19
2022-08-20T01:51:14.418Z,51.93
2022-08-20T01:56:11.576Z,51.90
2022-08-20T02:01:05.874Z,51.58
2022-08-20T02:06:02.872Z,51.78
2022-08-20T02:10:56.495Z,51.85
2022-08-20T02:15:54.706Z,51.96
2022-08-20T02:20:49.684Z,51.81
2022-08-20T02:25:46.358Z,51.84
2022-08-20T02:30:43.392Z,51.92
2022-08-20T02:35:39.051Z,51.88
2022-08-20T02:40:32.935Z,51.64
2022-08-20T02:45:26.708Z,51.28
2022-08-20T02:50:21.401Z,51.22
2022-08-20T02:55:25.916Z,51.17
2022-08-20T03:00:27.631Z,51.03
2022-08-20T03:05:21.043Z,51.34
2022-08-20T03:10:15.280Z,51.29
2022-08-20T03:15:17.923Z,51.42
2022-08-20T03:20:14.172Z,51.42
2022-08-20T03:25:08.178Z,51.39
2022-08-20T03:30:01.588Z,51.64
2022-08-20T03:34:55.251Z,51.60
2022-08-20T03:39:48.696Z,51.84
2022-08-20T03:44:44.653Z,51.74
2022-08-20T03:49:38.354Z,51.72
2022-08-20T03:54:32.311Z,51.71
2022-08-20T03:59:26.039Z,51.94
2022-08-20T04:04:21.011Z,51.70
2022-08-20T04:09:14.909Z,51.48
2022-08-20T04:14:09.330Z,51.56
2022-08-20T04:19:05.309Z,51.39
2022-08-20T04:23:59.315Z,51.16
2022-08-20T04:28:53.368Z,51.12
2022-08-20T04:33:47.379Z,51.00
2022-08-20T04:38:50.135Z,51.06
2022-08-20T04:43:44.914Z,51.04
2022-08-20T04:48:39.986Z,50.81
2022-08-20T04:53:34.675Z,50.86
2022-08-20T04:58:31.099Z,50.81
2022-08-20T05:03:25.397Z,50.84
2022-08-20T05:08:20.444Z,50.64
2022-08-20T05:13:14.741Z,50.71
2022-08-20T05:18:09.686Z,50.68
2022-08-20T05:23:03.681Z,50.78
2022-08-20T05:28:01.459Z,50.60
2022-08-20T05:32:55.951Z,50.70
2022-08-20T05:37:49.947Z,50.35
2022-08-20T05:42:44.212Z,50.77
2022-08-20T05:47:42.919Z,50.78
2022-08-20T05:52:37.011Z,50.61
2022-08-20T05:57:30.293Z,50.66
2022-08-20T06:02:41.987Z,50.68
2022-08-20T06:07:35.446Z,50.86
2022-08-20T06:12:30.004Z,50.93
2022-08-20T06:17:24.180Z,50.65
2022-08-20T06:22:26.106Z,50.51
2022-08-20T06:27:21.527Z,50.71
2022-08-20T06:32:16.403Z,50.73
2022-08-20T06:37:37.759Z,51.07
2022-08-20T06:42:31.637Z,50.85
2022-08-20T06:47:24.882Z,50.62
2022-08-20T06:52:18.570Z,50.00
2022-08-20T06:57:12.406Z,49.79
2022-08-20T07:02:06.565Z,49.12
2022-08-20T07:07:00.242Z,48.86
2022-08-20T07:11:54.201Z,48.09
2022-08-20T07:16:48.179Z,48.29
2022-08-20T07:21:41.714Z,48.84
2022-08-20T07:26:35.711Z,48.43
2022-08-20T07:31:48.128Z,48.23
2022-08-20T07:36:42.195Z,48.47
2022-08-20T07:41:35.571Z,47.92
2022-08-20T07:46:34.647Z,47.56
2022-08-20T07:51:27.918Z,47.80
2022-08-20T07:56:24.621Z,47.42
2022-08-20T08:01:29.819Z,47.17
2022-08-20T08:06:28.978Z,46.56
2022-08-20T08:11:24.347Z,46.65
2022-08-20T08:16:18.450Z,46.80
2022-08-20T08:21:17.330Z,47.00
2022-08-20T08:26:30.420Z,46.96
2022-08-20T08:31:26.081Z,46.87
2022-08-20T08:36:20.185Z,47.02
2022-08-20T08:41:32.311Z,47.26
2022-08-20T08:46:28.990Z,47.02
2022-08-20T08:51:29.846Z,46.82
2022-08-20T08:56:31.321Z,46.87
2022-08-20T09:01:54.582Z,46.89
2022-08-20T09:06:40.940Z,46.95
2022-08-20T09:11:50.418Z,46.80
2022-08-20T09:16:52.991Z,46.74
2022-08-20T09:21:48.340Z,46.80
2022-08-20T09:26:41.934Z,47.07
2022-08-20T09:31:35.252Z,47.23
2022-08-20T09:36:32.826Z,47.15
2022-08-20T09:41:26.709Z,47.20
2022-08-20T09:46:20.986Z,47.06
2022-08-20T09:51:21.368Z,47.19
2022-08-20T09:56:16.340Z,47.05
2022-08-20T10:01:29.724Z,47.16
2022-08-20T10:06:23.159Z,47.31
2022-08-20T10:11:18.011Z,47.18
2022-08-20T10:16:15.272Z,47.34
2022-08-20T10:21:15.159Z,47.24
2022-08-20T10:26:10.234Z,47.00
2022-08-20T10:31:05.466Z,47.11
2022-08-20T10:36:00.174Z,47.01
2022-08-20T10:40:54.161Z,47.01
2022-08-20T10:45:48.027Z,47.35
2022-08-20T10:50:41.343Z,47.46
2022-08-20T10:55:35.155Z,47.21
2022-08-20T11:00:30.435Z,47.76
2022-08-20T11:05:24.444Z,48.11
2022-08-20T11:10:18.490Z,46.94
2022-08-20T11:15:13.527Z,46.61
2022-08-20T11:20:08.757Z,45.25
2022-08-20T11:25:02.901Z,44.35
2022-08-20T11:29:56.847Z,43.32
2022-08-20T11:34:51.614Z,44.07
2022-08-20T11:39:45.597Z,42.38
2022-08-20T11:44:39.322Z,43.21
2022-08-20T11:49:34.521Z,43.61
2022-08-20T11:54:33.397Z,43.80
2022-08-20T11:59:28.402Z,43.81
2022-08-20T12:04:22.126Z,43.33
2022-08-20T12:09:23.074Z,43.33
2022-08-20T12:14:18.932Z,42.86
2022-08-20T12:19:13.139Z,42.60
2022-08-20T12:24:07.796Z,42.32
2022-08-20T12:29:05.334Z,42.64
2022-08-20T12:33:58.648Z,42.31
2022-08-20T12:38:56.818Z,42.84
2022-08-20T12:43:50.810Z,42.10
2022-08-20T12:48:45.190Z,41.92
2022-08-20T12:53:39.186Z,41.84
2022-08-20T12:58:32.409Z,41.39
2022-08-20T13:03:29.044Z,41.62
2022-08-20T13:08:26.738Z,41.78
2022-08-20T13:13:20.435Z,41.78
2022-08-20T13:18:15.668Z,42.23
2022-08-20T13:23:09.683Z,42.57
2022-08-20T13:28:09.335Z,42.48
2022-08-20T13:33:03.825Z,42.70
2022-08-20T13:37:58.345Z,41.84
2022-08-20T13:42:52.095Z,42.03
2022-08-20T13:47:45.658Z,42.39
2022-08-20T13:52:39.989Z,42.51
2022-08-20T13:57:36.924Z,42.05
2022-08-20T14:02:30.261Z,42.28
2022-08-20T14:07:31.995Z,42.33
2022-08-20T14:12:25.980Z,42.11
2022-08-20T14:17:53.597Z,42.40
2022-08-20T14:22:47.078Z,41.60
2022-08-20T14:27:41.039Z,41.12
2022-08-20T14:32:34.740Z,41.14
2022-08-20T14:37:32.243Z,40.50
2022-08-20T14:42:27.858Z,40.49
2022-08-20T14:47:28.470Z,40.07
2022-08-20T14:52:23.314Z,40.99
2022-08-20T14:57:21.672Z,40.94
2022-08-20T15:02:17.693Z,41.38
2022-08-20T15:07:33.622Z,41.19
2022-08-20T15:12:28.120Z,41.04
2022-08-20T15:17:23.400Z,40.78
2022-08-20T15:22:18.106Z,40.74
2022-08-20T15:27:22.813Z,40.62
2022-08-20T15:32:17.174Z,40.80
2022-08-20T15:37:11.384Z,41.20
2022-08-20T15:42:06.552Z,41.16
2022-08-20T15:47:30.166Z,41.22
2022-08-20T15:52:26.671Z,41.22
2022-08-20T15:57:34.712Z,41.33
2022-08-20T16:02:46.772Z,41.12
2022-08-20T16:08:37.518Z,41.00
2022-08-20T16:13:53.907Z,41.35
2022-08-20T16:18:56.648Z,41.28
2022-08-20T16:23:50.972Z,41.50
2022-08-20T16:29:27.414Z,41.34
2022-08-20T16:34:49.817Z,41.26
2022-08-20T16:40:05.281Z,41.29
2022-08-20T16:44:58.647Z,41.33
2022-08-20T16:50:09.497Z,41.52
2022-08-20T16:55:02.642Z,41.71
2022-08-20T17:00:17.070Z,41.54
2022-08-20T17:05:10.997Z,41.80
2022-08-20T17:10:27.208Z,41.43
2022-08-20T17:15:24.664Z,41.62
2022-08-20T17:20:20.538Z,42.10
2022-08-20T17:25:21.052Z,42.14
2022-08-20T17:30:24.948Z,42.14
2022-08-20T17:35:49.393Z,42.32
2022-08-20T17:40:46.836Z,42.74
2022-08-20T17:45:46.917Z,42.69
2022-08-20T17:50:43.575Z,42.75
2022-08-20T17:55:38.859Z,42.85
2022-08-20T18:00:33.563Z,42.97
2022-08-20T18:05:30.900Z,43.11
2022-08-20T18:10:27.802Z,43.01
2022-08-20T18:15:25.676Z,42.89
2022-08-20T18:20:28.926Z,43.19
2022-08-20T18:25:24.892Z,43.01
2022-08-20T18:30:21.720Z,43.29
2022-08-20T18:35:34.903Z,43.50
2022-08-20T18:40:33.973Z,43.21
2022-08-20T18:45:36.823Z,43.52
2022-08-20T18:50:47.671Z,43.75
2022-08-20T18:56:12.885Z,43.60
2022-08-20T19:01:14.198Z,43.84
2022-08-20T19:06:29.446Z,43.91
2022-08-20T19:12:05.958Z,43.89
2022-08-20T19:17:46.984Z,44.12
2022-08-20T19:22:46.719Z,44.26
2022-08-20T19:27:41.574Z,44.16
2022-08-20T19:32:35.266Z,44.27
2022-08-20T19:37:51.220Z,44.57
2022-08-20T19:42:45.448Z,44.53
2022-08-20T19:48:09.346Z,44.21
2022-08-20T19:53:14.259Z,43.92
2022-08-20T19:58:20.388Z,43.80
2022-08-20T20:03:26.306Z,43.92
2022-08-20T20:08:20.837Z,44.04
2022-08-20T20:13:18.078Z,44.24
2022-08-20T20:18:13.891Z,44.18
2022-08-20T20:23:24.158Z,44.46
2022-08-20T20:28:30.184Z,44.87
2022-08-20T20:33:44.403Z,44.82
2022-08-20T20:38:59.721Z,44.63
2022-08-20T20:44:27.874Z,44.15
2022-08-20T20:49:32.452Z,43.95
2022-08-20T20:54:46.636Z,44.10
2022-08-20T20:59:40.835Z,43.80
2022-08-20T21:04:35.098Z,44.53
2022-08-20T21:09:29.798Z,44.27
2022-08-20T21:14:23.817Z,44.40
2022-08-20T21:19:18.471Z,44.13
2022-08-20T21:24:12.126Z,44.04
2022-08-20T21:29:07.251Z,43.94
2022-08-20T21:34:00.322Z,43.98
2022-08-20T21:38:54.050Z,43.91
2022-08-20T21:43:48.957Z,44.53
2022-08-20T21:48:46.387Z,44.58
2022-08-20T21:53:42.259Z,44.52
2022-08-20T21:58:37.121Z,44.53
2022-08-20T22:03:40.949Z,44.83
2022-08-20T22:08:34.340Z,45.26
2022-08-20T22:13:32.284Z,45.29
2022-08-20T22:18:27.093Z,45.16
2022-08-20T22:23:23.689Z,45.56
2022-08-20T22:28:21.530Z,45.41
2022-08-20T22:33:26.595Z,45.19
2022-08-20T22:38:23.871Z,45.16
2022-08-20T22:43:20.325Z,45.12
2022-08-20T22:48:18.766Z,45.31
2022-08-20T22:53:16.401Z,45.46
2022-08-20T22:58:12.427Z,45.48
2022-08-20T23:03:08.065Z,45.41
2022-08-20T23:08:03.206Z,45.73
2022-08-20T23:12:58.361Z,45.70
2022-08-20T23:17:53.814Z,45.66
2022-08-20T23:22:48.022Z,45.60
2022-08-20T23:27:49.376Z,45.29
2022-08-20T23:32:45.671Z,45.63
2022-08-20T23:37:44.125Z,45.81
2022-08-20T23:42:38.959Z,45.44
2022-08-20T23:47:33.143Z,45.65
2022-08-20T23:52:28.387Z,45.86
2022-08-20T23:57:24.558Z,45.58
